Time;durP1;ratioP1;P1;durP2;ratioP2;P2;SDS_P1;SDS_P2;PMS_P1;PMS_P2;Temp;Humidity;BMP_temperature;BMP_pressure;BME280_temperature;BME280_humidity;BME280_pressure;Samples;Min_cycle;Max_cycle;Signal;HPM_P1;HPM_P2
2022/06/08 00:00:54;;;;;;;2.17;1.98;;;14.00;99.90;;;;;;5077030;28;20845;-76
2022/06/08 00:03:45;;;;;;;4.97;2.33;;;13.80;99.90;;;;;;5065063;28;20052;-76
2022/06/08 00:06:14;;;;;;;4.22;2.20;;;13.90;99.90;;;;;;5065610;28;20033;-76
2022/06/08 00:08:40;;;;;;;4.07;2.15;;;13.90;99.90;;;;;;5053857;28;20041;-76
2022/06/08 00:11:06;;;;;;;4.53;2.17;;;13.90;99.90;;;;;;5082889;28;20033;-76
2022/06/08 00:13:32;;;;;;;3.53;2.20;;;13.90;99.90;;;;;;5079334;28;20045;-76
2022/06/08 00:15:57;;;;;;;2.60;2.40;;;13.90;99.90;;;;;;5066144;28;20033;-76
2022/06/08 00:18:23;;;;;;;3.28;2.22;;;13.80;99.90;;;;;;5069230;28;20046;-76
2022/06/08 00:20:49;;;;;;;3.92;2.13;;;13.80;99.90;;;;;;5058548;28;20025;-76
2022/06/08 00:23:15;;;;;;;4.97;2.10;;;13.70;99.90;;;;;;5057319;28;20572;-76
2022/06/08 00:25:41;;;;;;;4.13;2.40;;;13.60;99.90;;;;;;5069098;28;20136;-76
2022/06/08 00:28:07;;;;;;;3.53;2.40;;;13.60;99.90;;;;;;5076666;28;20116;-76
2022/06/08 00:30:33;;;;;;;3.63;2.40;;;13.60;99.90;;;;;;5076392;28;20033;-76
2022/06/08 00:32:59;;;;;;;3.03;2.20;;;13.60;99.90;;;;;;5077138;28;20508;-76
2022/06/08 00:35:24;;;;;;;3.08;2.30;;;13.60;99.90;;;;;;5069776;28;20124;-76
2022/06/08 00:37:51;;;;;;;4.32;2.47;;;13.70;99.90;;;;;;5060708;28;20052;-76
2022/06/08 00:40:20;;;;;;;3.28;2.33;;;13.70;99.90;;;;;;5061976;28;20037;-76
2022/06/08 00:42:46;;;;;;;3.13;2.50;;;13.70;99.90;;;;;;5080548;28;20112;-76
2022/06/08 00:45:16;;;;;;;2.65;2.05;;;13.80;99.90;;;;;;5073532;28;20034;-76
2022/06/08 00:47:59;;;;;;;6.50;2.45;;;13.80;99.90;;;;;;5060952;28;20030;-76
2022/06/08 00:50:31;;;;;;;3.85;2.45;;;13.70;99.90;;;;;;5061252;28;20044;-76
2022/06/08 00:52:58;;;;;;;4.78;2.40;;;13.70;99.90;;;;;;5063138;28;20490;-76
2022/06/08 00:55:27;;;;;;;3.47;2.50;;;13.70;99.90;;;;;;5052711;28;20132;-76
2022/06/08 00:57:57;;;;;;;2.85;2.30;;;13.70;99.90;;;;;;5072890;28;20037;-76
2022/06/08 01:00:29;;;;;;;2.50;2.20;;;13.60;99.90;;;;;;5079827;28;20044;-76
2022/06/08 01:02:55;;;;;;;2.72;2.30;;;13.60;99.90;;;;;;5078818;28;20029;-76
2022/06/08 01:05:35;;;;;;;6.03;2.22;;;13.50;99.90;;;;;;5071582;28;20041;-76
2022/06/08 01:08:23;;;;;;;4.00;2.50;;;13.40;99.90;;;;;;5079288;28;20168;-76
2022/06/08 01:10:53;;;;;;;4.60;2.22;;;13.50;99.90;;;;;;5080271;28;20045;-76
2022/06/08 01:13:20;;;;;;;4.13;2.40;;;13.50;99.90;;;;;;5079983;28;20033;-76
2022/06/08 01:15:46;;;;;;;3.10;2.20;;;13.50;99.90;;;;;;5068268;28;20029;-76
2022/06/08 01:18:12;;;;;;;3.08;2.30;;;13.50;99.90;;;;;;5042324;28;20120;-76
2022/06/08 01:21:21;;;;;;;4.32;2.50;;;13.40;99.90;;;;;;5060073;28;20106;-76
2022/06/08 01:24:07;;;;;;;5.43;2.63;;;13.40;99.90;;;;;;5068993;28;20037;-76
2022/06/08 01:26:44;;;;;;;4.07;2.50;;;13.30;99.90;;;;;;5043944;28;20038;-76
2022/06/08 01:29:41;;;;;;;2.80;2.38;;;13.30;99.90;;;;;;5061959;28;20041;-76
2022/06/08 01:32:21;;;;;;;2.40;2.15;;;13.20;99.90;;;;;;5071951;28;20037;-76
2022/06/08 01:35:11;;;;;;;2.47;2.20;;;13.20;99.90;;;;;;5068372;28;20052;-76
2022/06/08 01:37:56;;;;;;;2.50;2.30;;;13.10;99.90;;;;;;5083078;28;20040;-76
2022/06/08 01:40:57;;;;;;;4.50;2.58;;;13.20;99.90;;;;;;5083480;28;20245;-76
2022/06/08 01:43:42;;;;;;;3.03;2.58;;;13.20;99.90;;;;;;5063352;28;20041;-76
2022/06/08 01:46:19;;;;;;;4.53;2.80;;;13.10;99.90;;;;;;5074514;28;20485;-76
2022/06/08 01:49:15;;;;;;;4.68;2.67;;;13.00;99.90;;;;;;5080676;28;20028;-76
2022/06/08 01:52:10;;;;;;;5.53;2.58;;;13.00;99.90;;;;;;5077924;28;20049;-76
2022/06/08 01:55:00;;;;;;;4.68;2.80;;;12.90;99.90;;;;;;5060004;28;20045;-76
2022/06/08 01:57:46;;;;;;;2.90;2.60;;;13.00;99.90;;;;;;5042249;28;20026;-75
2022/06/08 02:00:30;;;;;;;6.60;3.13;;;12.70;99.90;;;;;;5061889;28;20056;-75
2022/06/08 02:03:08;;;;;;;4.88;2.83;;;12.80;99.90;;;;;;5075601;28;20039;-75
2022/06/08 02:05:59;;;;;;;4.82;3.50;;;12.80;99.90;;;;;;5074238;28;20048;-75
2022/06/08 02:08:34;;;;;;;4.57;3.60;;;12.90;99.90;;;;;;5060650;28;20479;-75
2022/06/08 02:11:15;;;;;;;5.20;3.45;;;12.90;99.90;;;;;;5054513;28;20116;-75
2022/06/08 02:13:45;;;;;;;8.15;3.65;;;13.00;99.90;;;;;;5040488;28;20052;-75
2022/06/08 02:16:38;;;;;;;3.50;3.17;;;13.10;99.90;;;;;;5063212;28;20043;-75
2022/06/08 02:19:30;;;;;;;3.47;2.97;;;13.10;99.90;;;;;;5080433;28;20029;-75
2022/06/08 02:22:07;;;;;;;3.95;3.17;;;13.10;99.90;;;;;;5065621;28;20033;-75
2022/06/08 02:24:38;;;;;;;5.75;3.20;;;13.10;99.90;;;;;;5061805;28;20099;-76
2022/06/08 02:27:11;;;;;;;4.40;2.90;;;13.10;99.90;;;;;;5062225;28;20040;-75
2022/06/08 02:29:52;;;;;;;3.65;2.58;;;13.10;99.90;;;;;;5059940;28;20053;-75
2022/06/08 02:35:32;;;;;;;3.83;3.00;;;13.00;99.90;;;;;;5074929;28;20514;-75
2022/06/08 02:38:08;;;;;;;4.55;3.20;;;12.90;99.90;;;;;;5060022;28;20029;-75
2022/06/08 02:40:36;;;;;;;5.40;3.83;;;12.90;99.90;;;;;;5058781;28;20040;-75
2022/06/08 02:43:08;;;;;;;4.82;3.30;;;12.90;99.90;;;;;;5072160;28;20082;-76
2022/06/08 02:45:44;;;;;;;4.18;3.72;;;12.90;99.90;;;;;;5073352;28;20048;-75
2022/06/08 02:48:13;;;;;;;5.53;4.00;;;12.90;99.90;;;;;;5057897;28;20450;-75
2022/06/08 02:50:53;;;;;;;3.92;3.63;;;12.90;99.90;;;;;;5051468;28;20067;-75
2022/06/08 02:53:19;;;;;;;5.05;3.55;;;12.80;99.90;;;;;;5059995;28;20069;-75
2022/06/08 02:55:48;;;;;;;5.05;3.63;;;12.90;99.90;;;;;;5063937;28;20095;-75
2022/06/08 02:58:27;;;;;;;7.35;4.47;;;12.80;99.90;;;;;;5076113;28;20048;-75
2022/06/08 03:01:03;;;;;;;5.80;3.67;;;12.80;99.90;;;;;;5077346;28;20029;-75
2022/06/08 03:03:36;;;;;;;6.72;3.38;;;12.80;99.90;;;;;;5059182;28;20038;-75
2022/06/08 03:06:08;;;;;;;3.90;3.50;;;12.90;99.90;;;;;;5072022;28;20040;-75
2022/06/08 03:08:39;;;;;;;5.30;3.00;;;12.90;99.90;;;;;;5061402;28;20044;-76
2022/06/08 03:11:08;;;;;;;6.60;3.30;;;13.10;99.90;;;;;;5061177;28;20391;-75
2022/06/08 03:13:43;;;;;;;5.15;2.92;;;13.20;99.90;;;;;;5042772;28;20048;-75
2022/06/08 03:16:24;;;;;;;3.63;2.70;;;13.20;99.90;;;;;;5070609;28;20087;-75
2022/06/08 03:18:50;;;;;;;3.90;2.83;;;13.20;99.90;;;;;;5081704;28;20029;-76
2022/06/08 03:21:15;;;;;;;4.95;2.50;;;13.20;99.90;;;;;;5081189;28;20033;-75
2022/06/08 03:23:41;;;;;;;3.63;2.78;;;13.20;99.90;;;;;;5080713;28;20462;-76
2022/06/08 03:26:06;;;;;;;5.65;3.15;;;13.20;99.90;;;;;;5053564;28;20106;-76
2022/06/08 03:28:33;;;;;;;3.28;2.67;;;13.20;99.90;;;;;;5071480;28;20072;-75
2022/06/08 03:30:59;;;;;;;4.55;2.70;;;13.30;99.90;;;;;;5072854;28;20030;-75
2022/06/08 03:33:24;;;;;;;4.05;2.90;;;13.40;99.90;;;;;;5063976;28;20060;-75
2022/06/08 03:35:50;;;;;;;5.13;2.85;;;13.40;99.90;;;;;;5078969;28;20040;-75
2022/06/08 03:38:15;;;;;;;2.92;2.60;;;13.30;99.90;;;;;;5078613;28;20040;-75
2022/06/08 03:40:41;;;;;;;4.68;3.20;;;13.40;99.90;;;;;;5078821;28;20029;-75
2022/06/08 03:43:06;;;;;;;6.22;3.40;;;13.40;99.90;;;;;;5069670;28;20049;-75
2022/06/08 03:45:40;;;;;;;5.72;3.28;;;13.50;99.90;;;;;;5059476;28;20044;-75
2022/06/08 03:48:07;;;;;;;6.80;3.03;;;13.60;99.90;;;;;;5059283;28;20957;-75
2022/06/08 03:50:33;;;;;;;4.03;3.00;;;13.70;99.90;;;;;;5058651;28;20033;-75
2022/06/08 03:53:06;;;;;;;4.15;2.97;;;13.70;99.90;;;;;;5068457;28;20044;-75
2022/06/08 03:55:34;;;;;;;4.30;2.95;;;13.80;99.90;;;;;;5079391;28;20134;-75
2022/06/08 03:58:00;;;;;;;3.47;2.70;;;13.80;99.90;;;;;;5080004;28;20025;-75
2022/06/08 04:00:26;;;;;;;3.47;2.90;;;13.80;99.90;;;;;;5079736;28;20033;-75
2022/06/08 04:02:53;;;;;;;4.30;3.28;;;13.90;99.90;;;;;;5069477;28;20036;-75
2022/06/08 04:05:18;;;;;;;4.88;2.97;;;13.80;99.90;;;;;;5073887;28;20059;-75
2022/06/08 04:07:44;;;;;;;4.85;2.92;;;13.80;99.90;;;;;;5079207;28;20061;-76
2022/06/08 04:10:11;;;;;;;3.63;2.70;;;13.90;99.90;;;;;;5078917;28;20104;-76
2022/06/08 04:12:37;;;;;;;5.85;2.63;;;13.90;99.90;;;;;;5069626;28;20030;-76
2022/06/08 04:15:44;;;;;;;3.92;2.70;;;14.00;99.90;;;;;;5039403;28;20041;-75
2022/06/08 04:18:35;;;;;;;4.40;2.75;;;14.10;99.90;;;;;;5052457;28;20797;-75
2022/06/08 04:21:04;;;;;;;4.82;2.70;;;14.20;99.90;;;;;;5023098;28;20053;-75
2022/06/08 04:23:33;;;;;;;3.92;2.55;;;14.30;99.90;;;;;;5041719;28;20033;-75
2022/06/08 04:26:10;;;;;;;4.82;2.47;;;14.50;99.90;;;;;;5075035;28;20045;-75
2022/06/08 04:28:45;;;;;;;5.25;2.40;;;14.60;99.90;;;;;;5053998;28;20099;-75
2022/06/08 04:31:12;;;;;;;3.60;2.70;;;14.70;99.90;;;;;;5043811;28;20133;-75
2022/06/08 04:33:38;;;;;;;4.57;2.47;;;14.80;99.90;;;;;;5023989;28;20507;-75
2022/06/08 04:36:05;;;;;;;3.80;2.67;;;14.90;99.90;;;;;;5048279;28;20075;-75
2022/06/08 04:38:32;;;;;;;5.60;2.58;;;15.00;99.90;;;;;;5058638;28;20037;-75
2022/06/08 04:41:04;;;;;;;4.25;2.40;;;15.10;99.90;;;;;;5058128;28;20040;-75
2022/06/08 04:43:29;;;;;;;4.93;2.78;;;15.30;99.90;;;;;;5058890;28;20037;-75
2022/06/08 04:45:55;;;;;;;4.00;2.78;;;15.30;99.90;;;;;;5039106;28;20483;-75
2022/06/08 04:48:27;;;;;;;3.80;2.55;;;15.30;99.90;;;;;;5040233;28;20055;-75
2022/06/08 04:51:17;;;;;;;5.07;2.20;;;15.30;99.90;;;;;;5057116;28;20037;-75
2022/06/08 04:53:44;;;;;;;3.67;2.50;;;15.30;99.90;;;;;;5019135;28;20093;-76
2022/06/08 04:56:16;;;;;;;3.72;2.13;;;15.40;99.90;;;;;;5019950;28;20037;-75
2022/06/08 04:58:42;;;;;;;5.88;2.08;;;15.30;99.90;;;;;;5037767;28;20034;-75
2022/06/08 05:01:08;;;;;;;4.95;2.20;;;15.40;99.90;;;;;;5056522;28;20037;-75
2022/06/08 05:03:35;;;;;;;2.95;1.85;;;15.40;99.90;;;;;;5061119;28;20147;-75
2022/06/08 05:06:01;;;;;;;5.22;2.15;;;15.40;99.90;;;;;;5079839;28;20092;-75
2022/06/08 05:08:27;;;;;;;3.53;2.17;;;15.30;99.90;;;;;;5079695;28;20521;-75
2022/06/08 05:10:54;;;;;;;4.13;2.45;;;15.30;99.90;;;;;;5072238;28;20038;-75
2022/06/08 05:13:21;;;;;;;4.53;2.17;;;15.20;99.90;;;;;;5060201;28;20809;-75
2022/06/08 05:15:48;;;;;;;3.25;2.00;;;15.20;99.90;;;;;;5062547;28;20045;-76
2022/06/08 05:18:16;;;;;;;2.70;2.10;;;15.20;99.90;;;;;;5058860;28;20491;-76
2022/06/08 05:20:43;;;;;;;3.78;2.15;;;15.40;99.90;;;;;;5057516;28;20443;-76
2022/06/08 05:23:14;;;;;;;3.45;2.15;;;15.50;99.90;;;;;;5073832;28;20037;-76
2022/06/08 05:25:41;;;;;;;2.60;1.80;;;15.70;99.90;;;;;;5041135;28;20051;-76
2022/06/08 05:28:08;;;;;;;3.90;2.08;;;15.90;99.90;;;;;;5053818;28;20036;-75
2022/06/08 05:30:34;;;;;;;4.20;1.90;;;16.10;99.90;;;;;;5059409;28;20033;-75
2022/06/08 05:33:02;;;;;;;3.38;1.88;;;16.20;99.90;;;;;;5061030;28;20435;-76
2022/06/08 05:35:28;;;;;;;2.45;1.70;;;16.20;99.90;;;;;;5057537;28;20057;-76
2022/06/08 05:37:54;;;;;;;3.15;1.88;;;16.20;99.90;;;;;;5056347;28;20073;-75
2022/06/08 05:40:21;;;;;;;2.28;1.70;;;16.20;99.90;;;;;;5055702;28;20073;-76
2022/06/08 05:42:47;;;;;;;2.63;1.83;;;16.00;99.90;;;;;;5069117;28;20505;-76
2022/06/08 05:45:23;;;;;;;3.70;1.75;;;15.90;99.90;;;;;;5072936;28;20073;-75
2022/06/08 05:47:48;;;;;;;5.38;2.30;;;15.80;99.90;;;;;;5038099;28;20065;-76
2022/06/08 05:50:14;;;;;;;4.47;2.13;;;15.70;99.90;;;;;;5056819;28;20478;-76
2022/06/08 05:52:40;;;;;;;3.30;1.92;;;15.70;99.90;;;;;;5066425;28;20447;-75
2022/06/08 05:55:07;;;;;;;3.33;1.85;;;15.70;99.90;;;;;;5073874;28;20060;-75
2022/06/08 05:57:32;;;;;;;4.30;2.10;;;15.70;99.90;;;;;;5058572;28;20328;-76
2022/06/08 05:59:58;;;;;;;4.57;2.03;;;15.80;99.90;;;;;;5076730;28;20064;-78
2022/06/08 06:02:24;;;;;;;4.13;1.80;;;15.90;99.90;;;;;;5066281;28;20502;-77
2022/06/08 06:04:50;;;;;;;3.75;1.88;;;15.90;99.90;;;;;;5070531;28;20037;-78
2022/06/08 06:07:15;;;;;;;3.45;1.85;;;16.00;99.90;;;;;;5075569;28;20033;-77
2022/06/08 06:09:42;;;;;;;2.50;1.60;;;16.00;99.90;;;;;;5075912;28;20033;-77
2022/06/08 06:12:08;;;;;;;4.80;1.80;;;16.10;99.90;;;;;;5051886;28;20396;-77
2022/06/08 06:14:34;;;;;;;4.63;1.70;;;16.20;99.90;;;;;;5065727;28;20049;-77
2022/06/08 06:17:00;;;;;;;3.17;1.80;;;16.30;99.90;;;;;;5050901;28;20392;-76
2022/06/08 06:19:25;;;;;;;3.55;1.67;;;16.40;99.90;;;;;;5054041;28;20111;-76
2022/06/08 06:21:51;;;;;;;5.35;1.38;;;16.50;99.90;;;;;;5056868;28;20040;-76
2022/06/08 06:24:18;;;;;;;4.28;1.67;;;16.60;99.90;;;;;;5063776;28;20070;-76
2022/06/08 06:26:43;;;;;;;2.63;1.60;;;16.70;99.90;;;;;;5053964;28;20510;-76
2022/06/08 06:29:10;;;;;;;3.97;1.73;;;16.90;99.90;;;;;;5035670;28;20037;-76
2022/06/08 06:31:44;;;;;;;2.83;1.40;;;16.80;99.90;;;;;;5066492;28;20893;-76
2022/06/08 06:34:12;;;;;;;2.10;1.38;;;17.00;99.90;;;;;;5062160;28;20129;-76
2022/06/08 06:36:38;;;;;;;2.63;1.60;;;17.10;99.90;;;;;;5074117;28;20025;-76
2022/06/08 06:39:03;;;;;;;5.00;1.65;;;17.20;99.90;;;;;;5073989;28;20037;-76
2022/06/08 06:41:29;;;;;;;3.25;1.52;;;17.30;99.90;;;;;;5073568;28;20083;-76
2022/06/08 06:43:55;;;;;;;3.95;1.50;;;17.40;99.90;;;;;;5054150;28;20050;-76
2022/06/08 06:46:21;;;;;;;3.40;1.48;;;17.60;99.90;;;;;;5062084;28;20037;-76
2022/06/08 06:48:46;;;;;;;3.47;1.60;;;17.60;99.90;;;;;;5074536;28;20056;-76
2022/06/08 06:51:12;;;;;;;5.88;1.70;;;17.60;99.90;;;;;;5062376;28;20040;-76
2022/06/08 06:53:38;;;;;;;4.40;1.65;;;17.80;99.90;;;;;;5039245;28;20045;-76
2022/06/08 06:56:04;;;;;;;3.10;1.60;;;17.90;99.90;;;;;;5066205;28;20560;-76
2022/06/08 06:58:29;;;;;;;3.95;1.50;;;18.00;99.90;;;;;;5054618;28;20120;-76
2022/06/08 07:00:55;;;;;;;4.05;1.55;;;18.10;99.90;;;;;;5066293;28;20061;-76
2022/06/08 07:03:21;;;;;;;3.45;1.63;;;18.20;99.90;;;;;;5056627;28;20091;-76
2022/06/08 07:05:47;;;;;;;4.78;1.60;;;18.30;99.90;;;;;;5054820;28;20122;-76
2022/06/08 07:08:13;;;;;;;3.20;1.40;;;18.50;99.90;;;;;;5055654;28;20491;-76
2022/06/08 07:10:38;;;;;;;3.95;1.42;;;18.60;99.90;;;;;;5056286;28;20040;-76
2022/06/08 07:13:05;;;;;;;2.97;1.10;;;18.70;99.90;;;;;;5058016;28;20041;-76
2022/06/08 07:15:30;;;;;;;5.18;1.42;;;18.90;99.90;;;;;;5072741;28;20410;-76
2022/06/08 07:17:56;;;;;;;4.20;1.40;;;19.00;99.90;;;;;;5073703;28;20037;-76
2022/06/08 07:20:23;;;;;;;3.63;1.30;;;19.10;99.90;;;;;;5073641;28;20041;-76
2022/06/08 07:22:50;;;;;;;2.53;1.20;;;19.20;99.90;;;;;;5066163;28;20029;-76
2022/06/08 07:25:17;;;;;;;2.08;1.10;;;19.40;99.90;;;;;;5074228;28;20036;-76
2022/06/08 07:27:44;;;;;;;7.07;2.30;;;19.70;99.90;;;;;;5073806;28;20025;-76
2022/06/08 07:30:11;;;;;;;6.28;1.40;;;19.90;99.90;;;;;;5062630;28;20499;-76
2022/06/08 07:32:36;;;;;;;3.40;1.20;;;20.00;99.90;;;;;;5053416;28;20068;-76
2022/06/08 07:35:05;;;;;;;2.97;1.52;;;20.20;99.90;;;;;;5074139;28;20049;-76
2022/06/08 07:37:30;;;;;;;3.03;1.10;;;20.30;99.90;;;;;;5055792;28;20033;-76
2022/06/08 07:39:56;;;;;;;6.43;1.60;;;20.40;99.90;;;;;;5066202;28;20394;-77
2022/06/08 07:42:22;;;;;;;3.92;1.45;;;20.60;99.90;;;;;;5053131;28;20037;-76
2022/06/08 07:44:48;;;;;;;3.10;1.30;;;20.70;99.90;;;;;;5069338;28;20124;-76
2022/06/08 07:47:14;;;;;;;4.72;1.50;;;20.80;99.90;;;;;;5073453;28;20041;-76
2022/06/08 07:49:41;;;;;;;4.35;1.48;;;20.90;99.90;;;;;;5056154;28;20564;-76
2022/06/08 07:52:25;;;;;;;4.40;1.33;;;21.10;99.90;;;;;;5073883;28;20025;-76
2022/06/08 07:54:51;;;;;;;5.18;1.70;;;21.10;99.60;;;;;;5037503;28;20120;-76
2022/06/08 07:57:20;;;;;;;4.40;1.30;;;21.30;99.90;;;;;;5069995;28;20435;-76
2022/06/08 07:59:46;;;;;;;4.00;1.23;;;21.40;99.20;;;;;;5053673;28;20041;-75
2022/06/08 08:02:12;;;;;;;4.45;1.30;;;21.40;97.90;;;;;;5053561;28;20038;-75
2022/06/08 08:04:38;;;;;;;4.18;1.20;;;21.50;98.20;;;;;;5050992;28;20485;-75
2022/06/08 08:07:04;;;;;;;4.00;1.40;;;21.60;97.30;;;;;;5054352;28;20033;-75
2022/06/08 08:09:33;;;;;;;2.83;1.30;;;21.60;98.80;;;;;;5036728;28;20733;-76
2022/06/08 08:12:00;;;;;;;3.30;1.45;;;21.80;97.00;;;;;;5073102;28;20037;-76
2022/06/08 08:14:26;;;;;;;3.38;1.23;;;22.00;96.70;;;;;;5057987;28;20093;-76
2022/06/08 08:16:51;;;;;;;5.28;1.67;;;22.20;97.70;;;;;;5070492;28;20442;-75
2022/06/08 08:19:19;;;;;;;2.00;1.10;;;22.50;94.60;;;;;;5050828;28;20484;-75
2022/06/08 08:21:46;;;;;;;4.43;1.40;;;22.60;94.20;;;;;;5053033;28;20038;-76
2022/06/08 08:24:11;;;;;;;3.15;1.00;;;22.60;93.60;;;;;;5052126;28;20455;-76
2022/06/08 08:26:37;;;;;;;5.07;1.15;;;22.70;93.10;;;;;;5064484;28;20041;-76
2022/06/08 08:29:04;;;;;;;3.08;1.05;;;23.00;92.40;;;;;;5062179;28;20048;-75
2022/06/08 08:31:31;;;;;;;5.15;1.00;;;22.70;91.40;;;;;;5057684;28;20061;-76
2022/06/08 08:33:57;;;;;;;2.38;1.20;;;22.40;93.10;;;;;;5052722;28;20037;-75
2022/06/08 08:36:23;;;;;;;5.07;1.13;;;22.50;93.00;;;;;;5067459;28;20033;-76
2022/06/08 08:38:49;;;;;;;3.67;1.10;;;22.90;92.50;;;;;;5054488;28;20067;-76
2022/06/08 08:44:27;;;;;;;4.75;1.05;;;23.10;90.30;;;;;;5063203;28;20039;-76
2022/06/08 08:47:19;;;;;;;10.43;1.95;;;22.50;90.50;;;;;;5054513;28;20037;-75
2022/06/08 08:49:53;;;;;;;3.28;1.20;;;22.60;90.40;;;;;;5058446;28;20043;-76
2022/06/08 08:52:37;;;;;;;4.18;1.23;;;23.00;90.90;;;;;;5052719;28;20041;-76
2022/06/08 08:55:17;;;;;;;5.10;1.60;;;23.40;90.30;;;;;;5034996;28;20091;-76
2022/06/08 08:58:20;;;;;;;3.90;1.30;;;23.50;89.70;;;;;;5072935;28;20025;-76
2022/06/08 09:00:52;;;;;;;3.60;1.30;;;23.60;88.30;;;;;;4956141;28;20043;-76
2022/06/08 09:03:39;;;;;;;4.05;1.38;;;23.90;87.10;;;;;;5042495;28;20511;-76
2022/06/08 09:06:20;;;;;;;3.15;1.02;;;24.40;87.80;;;;;;5060226;28;20044;-76
2022/06/08 09:08:49;;;;;;;3.03;1.20;;;24.50;85.90;;;;;;5060056;28;20033;-76
2022/06/08 09:11:25;;;;;;;3.88;1.13;;;24.20;84.80;;;;;;5062880;28;20134;-76
2022/06/08 09:13:56;;;;;;;3.55;1.20;;;24.00;84.20;;;;;;5051845;28;20144;-76
2022/06/08 09:16:36;;;;;;;6.25;1.30;;;23.60;86.40;;;;;;5051604;28;20045;-76
2022/06/08 09:19:22;;;;;;;3.45;1.40;;;23.50;87.70;;;;;;5028667;28;20574;-76
2022/06/08 09:22:08;;;;;;;2.75;1.02;;;23.90;88.20;;;;;;5039354;28;20037;-75
2022/06/08 09:24:43;;;;;;;4.53;1.40;;;23.70;85.90;;;;;;5047040;28;20050;-76
2022/06/08 09:27:23;;;;;;;3.38;1.30;;;22.80;88.80;;;;;;5059712;28;20115;-76
2022/06/08 09:29:49;;;;;;;4.82;1.45;;;23.20;90.50;;;;;;5055210;28;20037;-76
2022/06/08 09:32:34;;;;;;;5.20;1.30;;;23.60;90.20;;;;;;5060813;28;20037;-76
2022/06/08 09:35:15;;;;;;;6.55;1.40;;;24.30;89.10;;;;;;5068281;28;20037;-76
2022/06/08 09:37:42;;;;;;;4.45;1.80;;;24.70;84.60;;;;;;5057494;28;20116;-76
2022/06/08 09:43:05;;;;;;;6.78;1.50;;;24.10;84.10;;;;;;5048289;28;20025;-76
2022/06/08 09:45:41;;;;;;;3.90;1.20;;;24.50;85.70;;;;;;5052384;28;20474;-76
2022/06/08 09:51:27;;;;;;;3.33;1.10;;;24.30;82.80;;;;;;5059616;28;20572;-76
2022/06/08 09:54:11;;;;;;;4.22;1.30;;;24.30;79.30;;;;;;5066182;28;20052;-76
2022/06/08 09:57:08;;;;;;;5.28;1.48;;;24.70;80.40;;;;;;5045011;28;20042;-76
2022/06/08 09:59:57;;;;;;;4.07;1.17;;;25.00;82.10;;;;;;5045149;28;20479;-76
2022/06/08 10:02:47;;;;;;;6.57;1.10;;;25.20;76.30;;;;;;5055557;28;20052;-75
2022/06/08 10:05:29;;;;;;;2.53;1.00;;;25.10;77.80;;;;;;5033327;28;20092;-76
2022/06/08 10:08:19;;;;;;;4.18;1.27;;;24.80;78.30;;;;;;5038080;28;20041;-77
2022/06/08 10:11:37;;;;;;;2.97;1.25;;;24.50;80.30;;;;;;5051685;28;20034;-76
2022/06/08 10:14:25;;;;;;;4.97;1.00;;;24.10;78.40;;;;;;4980908;28;20073;-79
2022/06/08 10:17:01;;;;;;;3.88;1.30;;;24.20;80.80;;;;;;4963828;28;20031;-77
2022/06/08 10:19:36;;;;;;;4.35;1.17;;;24.30;80.00;;;;;;5035853;28;20559;-77
2022/06/08 10:22:03;;;;;;;7.63;1.38;;;24.50;80.00;;;;;;5054395;28;20041;-77
2022/06/08 10:24:45;;;;;;;2.78;1.00;;;24.70;77.20;;;;;;5074277;28;20144;-77
2022/06/08 10:27:34;;;;;;;3.85;1.20;;;25.30;73.70;;;;;;5074852;28;20065;-77
2022/06/08 10:30:03;;;;;;;3.58;1.20;;;25.60;75.90;;;;;;5062910;28;20046;-77
2022/06/08 10:32:55;;;;;;;5.03;1.30;;;25.70;77.50;;;;;;5051522;28;20038;-78
2022/06/08 10:35:35;;;;;;;3.42;1.13;;;26.20;73.90;;;;;;5041456;28;20053;-76
2022/06/08 10:38:03;;;;;;;5.57;1.50;;;25.20;72.80;;;;;;5060534;28;20037;-77
2022/06/08 10:40:52;;;;;;;3.97;1.20;;;25.30;74.70;;;;;;5054297;28;20044;-77
2022/06/08 10:43:31;;;;;;;3.70;1.50;;;25.30;72.70;;;;;;5057751;28;20048;-76
2022/06/08 10:46:05;;;;;;;2.72;1.20;;;25.10;73.40;;;;;;5056868;28;20033;-77
2022/06/08 10:48:48;;;;;;;4.13;1.25;;;25.10;78.10;;;;;;5065082;28;20038;-76
2022/06/08 10:51:13;;;;;;;9.32;1.35;;;25.30;72.40;;;;;;5047179;28;20033;-75
2022/06/08 10:57:29;;;;;;;3.67;1.10;;;25.70;74.20;;;;;;5059594;28;20036;-75
2022/06/08 11:00:20;;;;;;;4.20;1.00;;;25.70;74.50;;;;;;5023702;28;20048;-76
2022/06/08 11:02:58;;;;;;;2.85;1.20;;;26.40;76.20;;;;;;5020840;28;20038;-76
2022/06/08 11:05:34;;;;;;;2.47;1.00;;;26.90;67.80;;;;;;5055958;28;20060;-77
2022/06/08 11:08:22;;;;;;;5.00;1.13;;;27.10;67.20;;;;;;5075135;28;20036;-76
2022/06/08 11:10:51;;;;;;;1.98;0.98;;;27.10;66.30;;;;;;5077746;28;20473;-75
2022/06/08 11:14:12;;;;;;;2.97;1.20;;;27.20;69.60;;;;;;5062394;28;20044;-78
2022/06/08 11:16:37;;;;;;;2.67;1.00;;;27.50;66.40;;;;;;5048553;28;20051;-77
2022/06/08 11:19:10;;;;;;;3.67;1.40;;;27.90;65.10;;;;;;5081278;28;20037;-76
2022/06/08 11:21:39;;;;;;;4.90;1.50;;;28.00;67.20;;;;;;5041290;28;20045;-75
2022/06/08 11:24:17;;;;;;;2.58;0.85;;;27.10;68.20;;;;;;5061736;28;20116;-76
2022/06/08 11:27:00;;;;;;;2.33;0.98;;;26.30;69.90;;;;;;5075819;28;20036;-79
2022/06/08 11:29:29;;;;;;;3.75;1.20;;;25.80;72.30;;;;;;5067734;28;20052;-76
2022/06/08 11:31:56;;;;;;;3.92;1.33;;;25.60;69.40;;;;;;5041155;28;20116;-76
2022/06/08 11:34:21;;;;;;;4.25;0.95;;;25.50;68.20;;;;;;5057032;28;20365;-76
2022/06/08 11:37:06;;;;;;;3.08;0.93;;;26.20;72.50;;;;;;5036074;28;20727;-76
2022/06/08 11:39:59;;;;;;;3.17;1.10;;;27.40;66.50;;;;;;5075321;28;20036;-77
2022/06/08 11:42:29;;;;;;;3.75;1.30;;;27.20;62.90;;;;;;5075515;28;20100;-76
2022/06/08 11:45:22;;;;;;;2.05;0.82;;;26.80;65.30;;;;;;5075466;28;20044;-76
2022/06/08 11:47:52;;;;;;;2.47;1.10;;;27.00;66.20;;;;;;5037714;28;20021;-76
2022/06/08 11:50:19;;;;;;;4.05;0.90;;;25.90;69.10;;;;;;5058157;28;20490;-76
2022/06/08 11:53:00;;;;;;;4.25;1.20;;;26.00;69.90;;;;;;5038667;28;20037;-76
2022/06/08 11:55:27;;;;;;;1.42;0.85;;;25.50;70.40;;;;;;5049151;28;20454;-76
2022/06/08 11:58:16;;;;;;;1.92;1.00;;;25.80;67.50;;;;;;5058484;28;20057;-76
2022/06/08 12:00:48;;;;;;;2.65;0.93;;;26.30;70.50;;;;;;5044014;28;20526;-76
2022/06/08 12:03:17;;;;;;;3.95;1.10;;;27.20;67.80;;;;;;5065222;28;20558;-76
2022/06/08 12:05:50;;;;;;;6.20;1.50;;;27.40;64.00;;;;;;5064909;28;20041;-76
2022/06/08 12:08:29;;;;;;;3.92;1.38;;;28.00;66.00;;;;;;5064962;28;20025;-76
2022/06/08 12:10:55;;;;;;;3.60;1.38;;;28.30;63.10;;;;;;5043032;28;20124;-76
2022/06/08 12:13:22;;;;;;;3.42;1.17;;;28.80;65.90;;;;;;5070255;28;20554;-76
2022/06/08 12:15:53;;;;;;;2.50;1.13;;;29.00;61.30;;;;;;5040537;28;20116;-76
2022/06/08 12:18:43;;;;;;;2.72;1.00;;;28.50;61.40;;;;;;5055346;28;20087;-76
2022/06/08 12:21:25;;;;;;;2.90;1.10;;;27.90;62.30;;;;;;5073703;28;20494;-76
2022/06/08 12:23:59;;;;;;;3.47;0.95;;;27.10;64.70;;;;;;5055183;28;20039;-76
2022/06/08 12:26:27;;;;;;;1.98;1.02;;;27.90;65.60;;;;;;5067048;28;20076;-76
2022/06/08 12:29:27;;;;;;;3.25;1.05;;;28.70;63.80;;;;;;5053260;28;20112;-76
2022/06/08 12:32:16;;;;;;;2.80;1.02;;;29.00;62.60;;;;;;5054836;28;20033;-79
2022/06/08 12:34:46;;;;;;;3.72;1.25;;;28.90;60.80;;;;;;5057681;28;20052;-77
2022/06/08 12:37:28;;;;;;;2.70;0.98;;;28.50;61.10;;;;;;5071777;28;20099;-77
2022/06/08 12:39:55;;;;;;;3.05;1.40;;;28.50;62.70;;;;;;5073516;28;20091;-77
2022/06/08 12:42:30;;;;;;;3.83;1.10;;;27.90;59.50;;;;;;5053252;28;20525;-77
2022/06/08 12:44:58;;;;;;;2.13;1.08;;;27.30;63.60;;;;;;5053213;28;20033;-77
2022/06/08 12:47:29;;;;;;;2.53;1.15;;;26.80;65.70;;;;;;5055307;28;20068;-77
2022/06/08 12:49:59;;;;;;;3.13;1.00;;;26.70;63.30;;;;;;5054114;28;20062;-77
2022/06/08 12:52:34;;;;;;;3.13;1.13;;;26.50;60.80;;;;;;5065507;28;20037;-78
2022/06/08 12:55:00;;;;;;;1.83;1.10;;;26.30;64.70;;;;;;5071528;28;20107;-78
2022/06/08 12:57:30;;;;;;;3.20;0.90;;;26.00;63.70;;;;;;5053617;28;20470;-77
2022/06/08 12:59:58;;;;;;;1.95;0.90;;;26.30;60.80;;;;;;5034450;28;20411;-77
2022/06/08 13:02:39;;;;;;;3.58;0.93;;;26.60;65.00;;;;;;5052882;28;20071;-78
2022/06/08 13:05:27;;;;;;;2.33;1.17;;;27.20;63.80;;;;;;5053553;28;20092;-78
2022/06/08 13:07:56;;;;;;;2.90;1.00;;;27.60;62.10;;;;;;5045578;28;20040;-78
2022/06/08 13:10:23;;;;;;;3.28;1.10;;;27.90;63.10;;;;;;5072812;28;20036;-77
2022/06/08 13:12:54;;;;;;;3.72;1.00;;;28.00;62.80;;;;;;5072357;28;20487;-78
2022/06/08 13:15:29;;;;;;;4.15;1.13;;;27.70;61.60;;;;;;5072283;28;20088;-78
2022/06/08 13:17:56;;;;;;;3.67;0.93;;;28.00;62.20;;;;;;5033519;28;20038;-77
2022/06/08 13:20:25;;;;;;;3.58;1.05;;;28.40;63.80;;;;;;5051963;28;20463;-77
2022/06/08 13:22:51;;;;;;;2.90;0.90;;;28.80;69.20;;;;;;5063916;28;20079;-78
2022/06/08 13:25:19;;;;;;;3.42;0.93;;;29.20;59.40;;;;;;5066702;28;20045;-78
2022/06/08 13:27:45;;;;;;;4.30;1.10;;;29.20;59.20;;;;;;5061812;28;20044;-77
2022/06/08 13:30:17;;;;;;;2.25;0.93;;;28.50;63.10;;;;;;5055882;28;20044;-78
2022/06/08 13:32:43;;;;;;;3.10;1.10;;;29.60;61.00;;;;;;5056279;28;20033;-78